createdAt,value
2018-06-22T00:01:03.273Z,99004.86
2018-06-22T00:03:32.464Z,99006.70
2018-06-22T00:06:01.094Z,99012.07
2018-06-22T00:08:36.618Z,99004.69
2018-06-22T00:11:05.288Z,99011.38
2018-06-22T00:13:34.311Z,99011.05
2018-06-22T00:16:04.352Z,99015.40
2018-06-22T00:18:33.211Z,99019.88
2018-06-22T00:21:02.143Z,99013.80
2018-06-22T00:23:30.933Z,99016.64
2018-06-22T00:26:00.035Z,99016.30
2018-06-22T00:28:28.947Z,99021.58
2018-06-22T00:30:58.033Z,99023.30
2018-06-22T00:33:26.785Z,99025.16
2018-06-22T00:35:56.150Z,99026.67
2018-06-22T00:38:26.401Z,99032.97
2018-06-22T00:40:55.320Z,99038.14
2018-06-22T00:43:24.707Z,99033.84
2018-06-22T00:45:53.646Z,99029.59
2018-06-22T00:48:22.643Z,99033.73
2018-06-22T00:50:51.777Z,99034.80
2018-06-22T00:53:31.875Z,99039.37
2018-06-22T00:56:00.792Z,99031.50
2018-06-22T00:58:29.995Z,99034.59
2018-06-22T01:00:59.031Z,99032.06
2018-06-22T01:03:28.019Z,99032.52
2018-06-22T01:05:56.929Z,99042.67
2018-06-22T01:08:25.866Z,99039.92
2018-06-22T01:10:54.750Z,99040.39
2018-06-22T01:13:24.435Z,99037.70
2018-06-22T01:15:53.044Z,99044.65
2018-06-22T01:18:21.718Z,99043.38
2018-06-22T01:20:51.235Z,99049.92
2018-06-22T01:23:20.874Z,99049.11
2018-06-22T01:25:49.993Z,99056.98
2018-06-22T01:28:18.819Z,99054.39
2018-06-22T01:30:47.634Z,99061.98
2018-06-22T01:33:16.559Z,99060.22
2018-06-22T01:35:45.720Z,99058.08
2018-06-22T01:38:14.891Z,99064.72
2018-06-22T01:40:44.816Z,99067.48
2018-06-22T01:43:13.766Z,99063.04
2018-06-22T01:45:43.342Z,99071.09
2018-06-22T01:48:13.327Z,99067.67
2018-06-22T01:50:42.252Z,99069.41
2018-06-22T01:53:10.972Z,99068.17
2018-06-22T01:55:39.782Z,99063.35
2018-06-22T01:58:08.691Z,99074.42
2018-06-22T02:00:37.605Z,99072.24
2018-06-22T02:03:06.439Z,99072.24
2018-06-22T02:05:35.322Z,99073.63
2018-06-22T02:08:04.108Z,99072.36
2018-06-22T02:10:32.890Z,99076.38
2018-06-22T02:13:01.552Z,99082.14
2018-06-22T02:15:30.349Z,99075.62
2018-06-22T02:17:59.207Z,99087.56
2018-06-22T02:20:27.951Z,99085.48
2018-06-22T02:22:56.614Z,99087.24
2018-06-22T02:25:25.266Z,99089.45
2018-06-22T02:27:53.982Z,99089.81
2018-06-22T02:30:22.685Z,99088.63
2018-06-22T02:32:51.370Z,99087.27
2018-06-22T02:35:20.036Z,99089.91
2018-06-22T02:37:48.770Z,99093.41
2018-06-22T02:40:17.511Z,99090.83
2018-06-22T02:42:46.226Z,99096.03
2018-06-22T02:45:14.989Z,99098.22
2018-06-22T02:47:43.736Z,99099.56
2018-06-22T02:50:12.401Z,99096.91
2018-06-22T02:52:41.054Z,99106.56
2018-06-22T02:55:09.985Z,99102.20
2018-06-22T02:57:38.767Z,99102.20
2018-06-22T03:00:07.553Z,99103.13
2018-06-22T03:02:36.252Z,99097.41
2018-06-22T03:05:05.053Z,99100.48
2018-06-22T03:07:33.965Z,99102.73
2018-06-22T03:10:04.686Z,99102.30
2018-06-22T03:12:33.822Z,99097.91
2018-06-22T03:15:03.202Z,99118.97
2018-06-22T03:17:31.994Z,99117.64
2018-06-22T03:20:01.118Z,99112.94
2018-06-22T03:22:30.073Z,99110.41
2018-06-22T03:24:59.131Z,99109.39
2018-06-22T03:27:27.864Z,99108.42
2018-06-22T03:29:56.752Z,99108.87
2018-06-22T03:32:25.452Z,99111.81
2018-06-22T03:34:54.134Z,99110.10
2018-06-22T03:37:22.856Z,99109.99
2018-06-22T03:39:51.614Z,99111.49
2018-06-22T03:42:20.266Z,99109.41
2018-06-22T03:44:49.173Z,99109.55
2018-06-22T03:47:17.824Z,99107.42
2018-06-22T03:49:46.570Z,99108.63
2018-06-22T03:52:15.428Z,99109.53
2018-06-22T03:54:44.360Z,99109.42
2018-06-22T03:57:13.161Z,99114.86
2018-06-22T03:59:41.988Z,99109.94
2018-06-22T04:02:10.745Z,99117.06
2018-06-22T04:04:39.448Z,99118.05
2018-06-22T04:07:08.322Z,99118.47
2018-06-22T04:09:37.304Z,99117.32
2018-06-22T04:12:06.128Z,99124.06
2018-06-22T04:14:34.965Z,99119.28
2018-06-22T04:17:03.664Z,99114.15
2018-06-22T04:19:32.422Z,99123.17
2018-06-22T04:22:01.150Z,99120.41
2018-06-22T04:24:30.064Z,99123.18
2018-06-22T04:26:58.708Z,99122.56
2018-06-22T04:29:27.600Z,99129.84
2018-06-22T04:31:57.068Z,99133.14
2018-06-22T04:34:25.865Z,99140.80
2018-06-22T04:36:54.503Z,99143.25
2018-06-22T04:39:23.202Z,99130.06
2018-06-22T04:41:51.992Z,99141.02
2018-06-22T04:44:29.495Z,99129.84
2018-06-22T04:46:58.587Z,99136.88
2018-06-22T04:49:27.470Z,99138.42
2018-06-22T04:51:56.291Z,99139.84
2018-06-22T04:54:25.459Z,99141.56
2018-06-22T04:56:54.708Z,99143.39
2018-06-22T04:59:23.848Z,99146.57
2018-06-22T05:01:55.752Z,99146.57
2018-06-22T05:04:24.588Z,99143.53
2018-06-22T05:06:53.533Z,99141.93
2018-06-22T05:09:22.505Z,99140.14
2018-06-22T05:11:51.320Z,99137.57
2018-06-22T05:14:20.660Z,99139.03
2018-06-22T05:16:50.123Z,99140.86
2018-06-22T05:19:19.347Z,99144.12
2018-06-22T05:21:48.357Z,99149.77
2018-06-22T05:24:18.499Z,99143.30
2018-06-22T05:26:47.321Z,99138.77
2018-06-22T05:29:16.860Z,99135.14
2018-06-22T05:31:45.951Z,99141.29
2018-06-22T05:34:14.935Z,99134.20
2018-06-22T05:36:44.405Z,99134.61
2018-06-22T05:39:13.388Z,99137.13
2018-06-22T05:41:42.379Z,99127.42
2018-06-22T05:44:11.615Z,99124.05
2018-06-22T05:46:40.543Z,99127.89
2018-06-22T05:49:09.600Z,99124.72
2018-06-22T05:51:38.847Z,99128.74
2018-06-22T05:54:07.813Z,99126.10
2018-06-22T05:56:36.855Z,99136.67
2018-06-22T05:59:06.238Z,99135.13
2018-06-22T06:01:35.233Z,99137.52
2018-06-22T06:04:04.178Z,99136.23
2018-06-22T06:06:33.020Z,99130.77
2018-06-22T06:09:02.109Z,99134.67
2018-06-22T06:11:31.755Z,99129.90
2018-06-22T06:14:01.483Z,99124.55
2018-06-22T06:16:30.766Z,99127.30
2018-06-22T06:18:59.964Z,99123.64
2018-06-22T06:21:29.982Z,99125.91
2018-06-22T06:23:59.385Z,99125.20
2018-06-22T06:26:28.171Z,99120.70
2018-06-22T06:29:01.893Z,99134.58
2018-06-22T06:31:30.864Z,99134.81
2018-06-22T06:33:59.675Z,99128.48
2018-06-22T06:36:29.971Z,99132.83
2018-06-22T06:39:03.749Z,99139.56
2018-06-22T06:41:32.690Z,99137.63
2018-06-22T06:44:01.480Z,99143.97
2018-06-22T06:46:31.092Z,99129.77
2018-06-22T06:48:59.901Z,99135.98
2018-06-22T06:51:29.020Z,99141.81
2018-06-22T06:53:58.353Z,99147.02
2018-06-22T06:56:27.098Z,99144.38
2018-06-22T06:58:55.668Z,99140.44
2018-06-22T07:01:24.411Z,99142.55
2018-06-22T07:03:53.136Z,99150.16
2018-06-22T07:06:22.068Z,99146.78
2018-06-22T07:08:50.913Z,99135.85
2018-06-22T07:11:19.625Z,99135.56
2018-06-22T07:13:48.594Z,99134.33
2018-06-22T07:16:17.659Z,99138.30
2018-06-22T07:18:46.680Z,99141.25
2018-06-22T07:21:15.861Z,99142.55
2018-06-22T07:23:45.783Z,99150.16
2018-06-22T07:26:14.627Z,99145.33
2018-06-22T07:28:43.669Z,99148.30
2018-06-22T07:31:13.021Z,99148.75
2018-06-22T07:33:41.956Z,99150.19
2018-06-22T07:36:11.415Z,99165.25
2018-06-22T07:38:40.439Z,99162.77
2018-06-22T07:41:09.610Z,99160.57
2018-06-22T07:43:38.583Z,99154.22
2018-06-22T07:46:07.451Z,99160.25
2018-06-22T07:48:36.733Z,99163.47
2018-06-22T07:51:05.600Z,99163.15
2018-06-22T07:53:34.758Z,99174.64
2018-06-22T07:56:03.697Z,99163.74
2018-06-22T07:58:32.595Z,99160.52
2018-06-22T08:01:01.595Z,99148.73
2018-06-22T08:03:31.240Z,99148.27
2018-06-22T08:06:00.442Z,99154.66
2018-06-22T08:08:29.365Z,99153.52
2018-06-22T08:10:58.189Z,99162.05
2018-06-22T08:13:27.110Z,99147.66
2018-06-22T08:15:56.941Z,99143.41
2018-06-22T08:18:26.206Z,99142.74
2018-06-22T08:20:55.943Z,99153.55
2018-06-22T08:23:24.718Z,99149.13
2018-06-22T08:25:53.601Z,99141.05
2018-06-22T08:28:22.390Z,99147.53
2018-06-22T08:30:52.562Z,99133.11
2018-06-22T08:33:22.016Z,99135.94
2018-06-22T08:35:51.410Z,99142.50
2018-06-22T08:38:20.160Z,99142.63
2018-06-22T08:40:49.355Z,99146.37
2018-06-22T08:43:18.448Z,99152.73
2018-06-22T08:45:48.085Z,99151.50
2018-06-22T08:48:17.007Z,99162.37
2018-06-22T08:50:46.083Z,99163.91
2018-06-22T08:53:15.854Z,99153.70
2018-06-22T08:55:45.625Z,99163.41
2018-06-22T08:58:15.097Z,99167.12
2018-06-22T09:00:44.007Z,99166.53
2018-06-22T09:03:13.098Z,99171.45
2018-06-22T09:05:42.525Z,99167.52
2018-06-22T09:08:11.436Z,99165.52
2018-06-22T09:10:40.625Z,99166.73
2018-06-22T09:13:10.614Z,99166.13
2018-06-22T09:15:39.667Z,99151.16
2018-06-22T09:18:09.008Z,99155.05
2018-06-22T09:20:37.899Z,99155.23
2018-06-22T09:23:06.948Z,99154.16
2018-06-22T09:25:36.198Z,99166.85
2018-06-22T09:28:05.140Z,99161.56
2018-06-22T09:30:34.242Z,99169.55
2018-06-22T09:33:03.270Z,99169.28
2018-06-22T09:35:32.655Z,99165.52
2018-06-22T09:38:01.794Z,99163.63
2018-06-22T09:40:32.006Z,99153.59
2018-06-22T09:43:00.952Z,99144.66
2018-06-22T09:45:31.604Z,99147.91
2018-06-22T09:48:00.231Z,99144.98
2018-06-22T09:50:29.128Z,99131.44
2018-06-22T09:52:58.218Z,99125.93
2018-06-22T09:55:27.595Z,99129.14
2018-06-22T09:57:56.721Z,99123.73
2018-06-22T10:00:25.650Z,99122.23
2018-06-22T10:03:04.059Z,99139.56
2018-06-22T10:05:39.302Z,99142.17
2018-06-22T10:08:08.450Z,99145.58
2018-06-22T10:10:37.700Z,99152.14
2018-06-22T10:13:07.129Z,99156.59
2018-06-22T10:15:36.183Z,99152.23
2018-06-22T10:18:05.045Z,99149.73
2018-06-22T10:20:34.326Z,99143.91
2018-06-22T10:23:03.334Z,99147.69
2018-06-22T10:25:33.785Z,99156.47
2018-06-22T10:28:03.671Z,99153.31
2018-06-22T10:30:33.230Z,99152.55
2018-06-22T10:33:02.428Z,99167.36
2018-06-22T10:35:31.977Z,99174.98
2018-06-22T10:38:04.200Z,99161.49
2018-06-22T10:40:34.039Z,99159.83
2018-06-22T10:43:03.045Z,99159.44
2018-06-22T10:45:32.686Z,99153.72
2018-06-22T10:48:03.763Z,99154.80
2018-06-22T10:50:32.852Z,99147.73
2018-06-22T10:53:02.068Z,99156.03
2018-06-22T10:55:32.271Z,99166.48
2018-06-22T10:58:02.146Z,99147.12
2018-06-22T11:00:31.691Z,99158.81
2018-06-22T11:03:00.942Z,99154.20
2018-06-22T11:05:30.205Z,99172.44
2018-06-22T11:08:00.122Z,99156.48
2018-06-22T11:10:29.771Z,99154.94
2018-06-22T11:12:58.637Z,99153.69
2018-06-22T11:15:27.739Z,99149.06
2018-06-22T11:17:58.850Z,99148.45
2018-06-22T11:20:27.881Z,99150.02
2018-06-22T11:22:57.091Z,99145.33
2018-06-22T11:25:26.563Z,99141.00
2018-06-22T11:27:55.654Z,99145.55
2018-06-22T11:30:24.948Z,99145.52
2018-06-22T11:32:53.895Z,99138.48
2018-06-22T11:35:24.270Z,99140.89
2018-06-22T11:37:53.111Z,99153.86
2018-06-22T11:40:22.568Z,99139.49
2018-06-22T11:42:52.149Z,99153.05
2018-06-22T11:45:21.302Z,99158.72
2018-06-22T11:47:50.230Z,99148.56
2018-06-22T11:50:19.736Z,99148.70
2018-06-22T11:52:48.965Z,99152.77
2018-06-22T11:55:18.619Z,99143.98
2018-06-22T11:57:59.001Z,99146.59
2018-06-22T12:00:28.723Z,99153.91
2018-06-22T12:02:58.108Z,99157.21
2018-06-22T12:05:27.097Z,99156.55
2018-06-22T12:07:56.387Z,99166.27
2018-06-22T12:10:25.975Z,99161.23
2018-06-22T12:12:55.070Z,99159.36
2018-06-22T12:15:31.684Z,99156.55
2018-06-22T12:18:00.815Z,99161.41
2018-06-22T12:20:29.761Z,99163.28
2018-06-22T12:22:58.910Z,99152.78
2018-06-22T12:25:28.937Z,99148.78
2018-06-22T12:27:58.664Z,99142.69
2018-06-22T12:30:27.654Z,99143.52
2018-06-22T12:32:56.590Z,99143.91
2018-06-22T12:35:25.556Z,99139.66
2018-06-22T12:37:54.505Z,99137.19
2018-06-22T12:40:23.655Z,99138.80
2018-06-22T12:42:52.580Z,99137.38
2018-06-22T12:45:21.651Z,99140.58
2018-06-22T12:47:53.579Z,99142.36
2018-06-22T12:50:23.774Z,99148.09
2018-06-22T12:52:53.025Z,99141.06
2018-06-22T12:55:22.367Z,99144.78
2018-06-22T12:57:51.694Z,99148.67
2018-06-22T13:00:22.715Z,99144.84
2018-06-22T13:03:02.272Z,99130.80
2018-06-22T13:05:31.976Z,99133.25
2018-06-22T13:08:01.525Z,99125.30
2018-06-22T13:10:30.717Z,99148.72
2018-06-22T13:13:00.121Z,99150.55
2018-06-22T13:15:29.106Z,99153.52
2018-06-22T13:17:58.073Z,99158.20
2018-06-22T13:20:27.651Z,99151.56
2018-06-22T13:22:57.223Z,99150.69
2018-06-22T13:25:26.648Z,99146.68
2018-06-22T13:27:56.267Z,99145.47
2018-06-22T13:30:25.727Z,99145.38
2018-06-22T13:32:55.423Z,99142.39
2018-06-22T13:35:25.356Z,99134.84
2018-06-22T13:37:55.072Z,99136.70
2018-06-22T13:40:24.377Z,99138.09
2018-06-22T13:42:53.580Z,99131.23
2018-06-22T13:45:23.085Z,99133.17
2018-06-22T13:47:52.451Z,99138.78
2018-06-22T13:50:27.658Z,99140.50
2018-06-22T13:52:56.907Z,99131.82
2018-06-22T13:55:26.022Z,99133.18
2018-06-22T13:57:57.985Z,99130.54
2018-06-22T14:00:27.341Z,99127.02
2018-06-22T14:02:56.967Z,99131.86
2018-06-22T14:05:31.484Z,99141.86
2018-06-22T14:08:00.674Z,99142.48
2018-06-22T14:10:29.923Z,99141.94
2018-06-22T14:12:59.746Z,99144.77
2018-06-22T14:15:29.225Z,99139.80
2018-06-22T14:18:00.530Z,99136.12
2018-06-22T14:20:30.113Z,99135.97
2018-06-22T14:23:02.307Z,99134.96
2018-06-22T14:25:31.561Z,99138.51
2018-06-22T14:28:00.650Z,99140.25
2018-06-22T14:30:31.690Z,99140.52
2018-06-22T14:33:01.077Z,99144.85
2018-06-22T14:35:30.024Z,99138.22
2018-06-22T14:37:59.030Z,99137.75
2018-06-22T14:40:28.304Z,99149.89
2018-06-22T14:42:57.563Z,99142.59
2018-06-22T14:45:26.969Z,99142.63
2018-06-22T14:47:56.153Z,99129.66
2018-06-22T14:50:25.016Z,99134.52
2018-06-22T14:52:56.022Z,99130.73
2018-06-22T14:55:30.618Z,99129.89
2018-06-22T14:58:04.712Z,99132.89
2018-06-22T15:00:40.245Z,99123.66
2018-06-22T15:03:14.680Z,99127.73
2018-06-22T15:05:50.299Z,99125.70
2018-06-22T15:08:21.856Z,99120.45
2018-06-22T15:10:51.284Z,99116.27
2018-06-22T15:13:20.453Z,99116.48
2018-06-22T15:15:49.734Z,99118.42
2018-06-22T15:18:19.919Z,99117.08
2018-06-22T15:20:49.148Z,99119.77
2018-06-22T15:23:18.401Z,99128.46
2018-06-22T15:25:48.631Z,99131.94
2018-06-22T15:28:17.747Z,99135.11
2018-06-22T15:30:47.259Z,99141.23
2018-06-22T15:33:22.365Z,99142.13
2018-06-22T15:35:56.490Z,99139.37
2018-06-22T15:38:30.524Z,99128.39
2018-06-22T15:41:04.893Z,99126.89
2018-06-22T15:43:39.199Z,99129.26
2018-06-22T15:46:13.296Z,99134.20
2018-06-22T15:48:48.349Z,99135.70
2018-06-22T15:51:23.244Z,99131.70
2018-06-22T15:53:57.612Z,99141.17
2018-06-22T15:56:27.053Z,99136.73
2018-06-22T15:58:56.931Z,99133.91
2018-06-22T16:01:26.712Z,99120.71
2018-06-22T16:03:57.180Z,99119.42
2018-06-22T16:06:27.110Z,99115.62
2018-06-22T16:08:56.733Z,99126.36
2018-06-22T16:11:29.232Z,99130.86
2018-06-22T16:14:03.372Z,99130.58
2018-06-22T16:16:37.595Z,99132.27
2018-06-22T16:19:11.710Z,99144.48
2018-06-22T16:21:45.941Z,99144.70
2018-06-22T16:24:20.047Z,99139.11
2018-06-22T16:26:53.966Z,99140.91
2018-06-22T16:29:23.845Z,99150.71
2018-06-22T16:31:53.599Z,99145.44
2018-06-22T16:34:22.668Z,99144.11
2018-06-22T16:36:53.404Z,99153.03
2018-06-22T16:39:22.912Z,99153.52
2018-06-22T16:41:56.031Z,99149.00
2018-06-22T16:44:25.130Z,99145.55
2018-06-22T16:46:54.647Z,99137.26
2018-06-22T16:49:24.230Z,99140.58
2018-06-22T16:51:53.761Z,99148.70
2018-06-22T16:54:24.311Z,99145.51
2018-06-22T16:56:54.894Z,99143.16
2018-06-22T16:59:24.934Z,99139.03
2018-06-22T17:01:54.427Z,99133.45
2018-06-22T17:04:23.590Z,99147.38
2018-06-22T17:06:57.928Z,99144.05
2018-06-22T17:09:32.217Z,99150.34
2018-06-22T17:12:06.181Z,99147.41
2018-06-22T17:14:40.650Z,99139.98
2018-06-22T17:17:14.775Z,99144.28
2018-06-22T17:19:44.297Z,99149.87
2018-06-22T17:22:15.771Z,99148.84
2018-06-22T17:24:45.184Z,99152.48
2018-06-22T17:27:14.737Z,99159.89
2018-06-22T17:29:43.935Z,99160.73
2018-06-22T17:32:17.754Z,99160.46
2018-06-22T17:34:47.217Z,99156.28
2018-06-22T17:37:18.315Z,99161.20
2018-06-22T17:39:47.815Z,99158.59
2018-06-22T17:42:16.928Z,99169.57
2018-06-22T17:44:46.233Z,99154.67
2018-06-22T17:47:15.571Z,99165.44
2018-06-22T17:49:45.047Z,99153.84
2018-06-22T17:52:14.687Z,99158.12
2018-06-22T17:54:44.231Z,99153.39
2018-06-22T17:57:14.632Z,99151.73
2018-06-22T17:59:49.639Z,99144.18
2018-06-22T18:02:25.381Z,99152.95
2018-06-22T18:04:59.829Z,99152.50
2018-06-22T18:07:36.686Z,99150.70
2018-06-22T18:10:11.061Z,99154.77
2018-06-22T18:12:45.218Z,99164.21
2018-06-22T18:15:15.375Z,99166.03
2018-06-22T18:17:44.656Z,99165.92
2018-06-22T18:20:14.351Z,99170.63
2018-06-22T18:22:43.683Z,99170.49
2018-06-22T18:25:13.705Z,99174.48
2018-06-22T18:27:42.637Z,99175.54
2018-06-22T18:30:13.141Z,99173.77
2018-06-22T18:32:42.293Z,99176.27
2018-06-22T18:35:13.203Z,99185.43
2018-06-22T18:37:42.951Z,99181.98
2018-06-22T18:40:13.281Z,99186.37
2018-06-22T18:42:43.116Z,99188.91
2018-06-22T18:45:12.779Z,99192.92
2018-06-22T18:47:42.653Z,99193.36
2018-06-22T18:50:12.349Z,99189.88
2018-06-22T18:52:46.787Z,99190.51
2018-06-22T18:55:21.236Z,99189.67
2018-06-22T18:57:55.345Z,99194.20
2018-06-22T19:00:29.838Z,99196.56
2018-06-22T19:03:04.031Z,99192.19
2018-06-22T19:05:35.552Z,99199.36
2018-06-22T19:08:04.799Z,99200.89
2018-06-22T19:10:33.879Z,99202.16
2018-06-22T19:13:02.880Z,99206.86
2018-06-22T19:15:32.171Z,99201.95
2018-06-22T19:18:01.520Z,99206.46
2018-06-22T19:20:30.926Z,99212.69
2018-06-22T19:23:00.190Z,99215.59
2018-06-22T19:25:29.359Z,99219.81
2018-06-22T19:27:58.864Z,99217.48
2018-06-22T19:30:28.641Z,99224.00
2018-06-22T19:32:58.471Z,99221.36
2018-06-22T19:35:27.848Z,99221.25
2018-06-22T19:37:57.016Z,99221.86
2018-06-22T19:40:26.100Z,99237.95
2018-06-22T19:42:55.679Z,99237.44
2018-06-22T19:45:30.204Z,99240.97
2018-06-22T19:48:04.406Z,99243.33
2018-06-22T19:50:38.769Z,99242.06
2018-06-22T19:53:13.439Z,99239.66
2018-06-22T19:55:43.353Z,99241.25
2018-06-22T19:58:12.813Z,99250.84
2018-06-22T20:00:42.560Z,99247.25
2018-06-22T20:03:11.989Z,99249.77
2018-06-22T20:05:41.114Z,99256.61
2018-06-22T20:08:10.895Z,99264.45
2018-06-22T20:10:40.996Z,99258.89
2018-06-22T20:13:15.251Z,99269.65
2018-06-22T20:15:45.446Z,99271.55
2018-06-22T20:18:21.362Z,99270.80
2018-06-22T20:20:51.154Z,99266.52
2018-06-22T20:23:22.672Z,99274.05
2018-06-22T20:25:52.721Z,99277.66
2018-06-22T20:28:26.237Z,99276.49
2018-06-22T20:33:51.713Z,99284.17
2018-06-22T20:36:25.905Z,99283.36
2018-06-22T20:39:03.506Z,99282.53
2018-06-22T20:41:37.206Z,99284.78
2018-06-22T20:44:11.344Z,99284.36
2018-06-22T20:46:45.173Z,99293.10
2018-06-22T20:49:19.117Z,99296.25
2018-06-22T20:51:48.190Z,99300.63
2018-06-22T20:54:16.599Z,99301.17
2018-06-22T20:56:45.321Z,99302.36
2018-06-22T20:59:14.414Z,99301.98
2018-06-22T21:01:42.922Z,99304.94
2018-06-22T21:04:11.540Z,99302.77
2018-06-22T21:06:40.187Z,99298.02
2018-06-22T21:09:09.492Z,99303.27
2018-06-22T21:11:38.261Z,99300.11
2018-06-22T21:14:06.933Z,99306.77
2018-06-22T21:16:36.564Z,99310.89
2018-06-22T21:19:04.945Z,99308.06
2018-06-22T21:22:37.415Z,99313.48
2018-06-22T21:25:05.870Z,99308.56
2018-06-22T21:27:39.695Z,99304.30
2018-06-22T21:30:13.407Z,99300.43
2018-06-22T21:32:47.134Z,99304.48
2018-06-22T21:35:28.194Z,99308.95
2018-06-22T21:38:01.739Z,99311.37
2018-06-22T21:40:30.649Z,99310.13
2018-06-22T21:42:59.007Z,99303.16
2018-06-22T21:45:27.649Z,99309.92
2018-06-22T21:47:56.249Z,99317.09
2018-06-22T21:50:24.639Z,99317.13
2018-06-22T21:52:53.006Z,99317.16
2018-06-22T21:55:21.365Z,99321.08
2018-06-22T21:57:49.756Z,99319.77
2018-06-22T22:00:26.307Z,99322.22
2018-06-22T22:02:55.670Z,99320.52
2018-06-22T22:05:24.037Z,99315.61
2018-06-22T22:07:52.399Z,99318.25
2018-06-22T22:10:26.085Z,99318.69
2018-06-22T22:12:54.486Z,99317.69
2018-06-22T22:15:22.812Z,99317.14
2018-06-22T22:17:51.256Z,99316.38
2018-06-22T22:20:19.605Z,99314.69
2018-06-22T22:22:47.941Z,99311.09
2018-06-22T22:25:16.298Z,99313.02
2018-06-22T22:27:44.817Z,99319.52
2018-06-22T22:30:13.375Z,99316.15
2018-06-22T22:32:41.887Z,99312.81
2018-06-22T22:35:10.243Z,99317.34
2018-06-22T22:37:38.818Z,99314.67
2018-06-22T22:40:07.996Z,99309.84
2018-06-22T22:42:36.452Z,99314.34
2018-06-22T22:45:05.452Z,99308.83
2018-06-22T22:47:34.232Z,99308.03
2018-06-22T22:50:02.638Z,99306.40
2018-06-22T22:52:31.015Z,99310.42
2018-06-22T22:54:59.771Z,99312.67
2018-06-22T22:57:28.255Z,99310.05
2018-06-22T23:00:12.480Z,99312.27
2018-06-22T23:02:42.698Z,99314.55
2018-06-22T23:05:11.880Z,99310.20
2018-06-22T23:07:40.337Z,99306.25
2018-06-22T23:10:08.999Z,99305.34
2018-06-22T23:12:37.341Z,99305.32
2018-06-22T23:15:06.533Z,99303.61
2018-06-22T23:17:35.258Z,99303.66
2018-06-22T23:20:03.551Z,99303.23
2018-06-22T23:23:39.667Z,99302.84
2018-06-22T23:26:08.315Z,99301.56
2018-06-22T23:28:36.726Z,99297.22
2018-06-22T23:31:06.166Z,99301.19
2018-06-22T23:33:34.939Z,99295.45
2018-06-22T23:36:04.269Z,99290.61
2018-06-22T23:38:33.265Z,99292.37
2018-06-22T23:41:01.560Z,99287.95
2018-06-22T23:43:29.991Z,99290.14
2018-06-22T23:45:58.295Z,99288.77
2018-06-22T23:48:26.778Z,99286.55
2018-06-22T23:50:55.125Z,99280.78
2018-06-22T23:53:23.546Z,99278.56
2018-06-22T23:55:51.914Z,99282.55
2018-06-22T23:58:20.205Z,99288.33
